Time;durP1;ratioP1;P1;durP2;ratioP2;P2;SDS_P1;SDS_P2;PMS_P1;PMS_P2;Temp;Humidity;BMP_temperature;BMP_pressure;BME280_temperature;BME280_humidity;BME280_pressure;Samples;Min_cycle;Max_cycle;Signal;HPM_P1;HPM_P2
2021/03/28 00:01:05;;;;;;;11.97;3.23;;;8.10;99.90;;;;;;5099712;28;20194;-71
2021/03/28 00:03:41;;;;;;;12.10;3.90;;;8.10;99.90;;;;;;5108446;28;20220;-71
2021/03/28 00:06:17;;;;;;;19.43;3.37;;;8.10;99.90;;;;;;5105715;28;20187;-71
2021/03/28 00:09:04;;;;;;;14.80;3.83;;;8.10;99.90;;;;;;5108646;28;20159;-70
2021/03/28 00:11:31;;;;;;;14.40;3.43;;;8.00;99.90;;;;;;5107995;28;20235;-70
2021/03/28 00:13:58;;;;;;;14.03;3.80;;;8.00;99.90;;;;;;5108163;28;20174;-71
2021/03/28 00:16:30;;;;;;;11.43;3.17;;;8.00;99.90;;;;;;5105783;28;20164;-72
2021/03/28 00:19:10;;;;;;;21.27;4.27;;;7.90;99.90;;;;;;5107573;28;20632;-71
2021/03/28 00:21:50;;;;;;;15.13;3.80;;;8.00;99.90;;;;;;5108508;28;20184;-71
2021/03/28 00:24:28;;;;;;;13.70;3.67;;;8.20;99.90;;;;;;5108099;28;20198;-70
2021/03/28 00:27:05;;;;;;;10.13;3.10;;;8.30;99.90;;;;;;5105612;28;20504;-70
2021/03/28 00:29:46;;;;;;;11.20;3.67;;;8.20;99.90;;;;;;5108033;28;20233;-71
2021/03/28 00:32:18;;;;;;;14.13;3.63;;;8.20;99.90;;;;;;5107919;28;20171;-72
2021/03/28 00:34:48;;;;;;;12.87;3.47;;;8.20;99.90;;;;;;5089990;28;20175;-71
2021/03/28 00:37:17;;;;;;;14.83;3.30;;;8.20;99.90;;;;;;5105390;28;20617;-71
2021/03/28 00:39:48;;;;;;;12.77;3.20;;;8.20;99.90;;;;;;5108216;28;20167;-71
2021/03/28 00:42:37;;;;;;;12.10;3.43;;;8.30;99.90;;;;;;5107999;28;20159;-71
2021/03/28 00:45:33;;;;;;;15.83;3.60;;;8.40;99.90;;;;;;5106344;28;20175;-71
2021/03/28 00:48:29;;;;;;;18.17;3.43;;;8.40;99.90;;;;;;5107536;28;20201;-71
2021/03/28 00:51:12;;;;;;;9.90;3.20;;;8.20;99.90;;;;;;5107814;28;20195;-71
2021/03/28 00:53:41;;;;;;;12.53;2.60;;;8.20;99.90;;;;;;5107571;28;20175;-71
2021/03/28 00:56:14;;;;;;;10.87;2.70;;;8.20;99.90;;;;;;5104916;28;20172;-71
2021/03/28 00:59:15;;;;;;;9.17;2.87;;;8.20;99.90;;;;;;5107630;28;20171;-71
2021/03/28 01:02:11;;;;;;;13.47;2.77;;;8.20;99.90;;;;;;5005463;28;20183;-70
2021/03/28 01:04:42;;;;;;;10.90;2.90;;;8.30;99.90;;;;;;5005655;28;20182;-72
2021/03/28 01:07:32;;;;;;;13.90;3.00;;;8.30;99.90;;;;;;4986482;28;20167;-71
2021/03/28 01:10:33;;;;;;;12.97;2.80;;;8.30;99.90;;;;;;5005394;28;20202;-71
2021/03/28 01:13:25;;;;;;;13.77;3.57;;;8.40;99.90;;;;;;5005496;28;20286;-71
2021/03/28 01:16:20;;;;;;;9.93;2.30;;;8.40;99.90;;;;;;5002482;28;20167;-71
2021/03/28 01:19:03;;;;;;;9.07;2.93;;;8.30;99.90;;;;;;5005184;28;20241;-71
2021/03/28 01:21:45;;;;;;;10.50;2.70;;;8.20;99.90;;;;;;5005460;28;20162;-71
2021/03/28 01:24:13;;;;;;;11.27;2.90;;;8.30;99.90;;;;;;5005035;28;20170;-71
2021/03/28 01:26:42;;;;;;;9.20;3.30;;;8.30;99.90;;;;;;5002515;28;20198;-71
2021/03/28 01:29:30;;;;;;;8.70;2.70;;;8.30;99.90;;;;;;5004155;28;20226;-70
2021/03/28 01:32:27;;;;;;;13.10;3.10;;;8.20;99.90;;;;;;5004607;28;20183;-71
2021/03/28 01:35:19;;;;;;;8.53;3.07;;;8.30;99.90;;;;;;4965707;29;20195;-71
2021/03/28 01:38:03;;;;;;;11.53;2.90;;;8.40;99.90;;;;;;4993393;28;20180;-71
2021/03/28 01:40:34;;;;;;;10.43;2.87;;;8.40;99.90;;;;;;5047697;28;20181;-70
2021/03/28 01:43:21;;;;;;;10.20;3.40;;;8.20;99.90;;;;;;5047460;28;20172;-70
2021/03/28 01:45:57;;;;;;;7.70;2.90;;;8.20;99.90;;;;;;5061185;28;20188;-70
2021/03/28 01:48:35;;;;;;;11.77;3.43;;;8.20;99.90;;;;;;5063755;28;20183;-71
2021/03/28 01:51:34;;;;;;;8.60;2.50;;;8.30;99.90;;;;;;5047379;28;20652;-70
2021/03/28 01:54:15;;;;;;;12.57;2.80;;;8.30;99.90;;;;;;5064017;28;20232;-71
2021/03/28 01:56:56;;;;;;;7.57;3.23;;;8.30;99.90;;;;;;5061328;28;20165;-71
2021/03/28 01:59:49;;;;;;;8.70;2.77;;;8.30;99.90;;;;;;5064026;28;20184;-70
2021/03/28 02:02:33;;;;;;;10.53;4.13;;;8.30;99.90;;;;;;5063708;28;20177;-71
2021/03/28 02:05:10;;;;;;;8.27;3.07;;;8.40;99.90;;;;;;5062782;28;20188;-71
2021/03/28 02:08:20;;;;;;;11.40;3.23;;;8.40;99.90;;;;;;5063504;28;20196;-71
2021/03/28 02:11:04;;;;;;;8.20;2.87;;;8.40;99.90;;;;;;5067721;28;20200;-71
2021/03/28 02:13:42;;;;;;;13.03;2.80;;;8.40;99.90;;;;;;5106310;28;20170;-70
2021/03/28 02:16:25;;;;;;;10.93;3.07;;;8.10;99.90;;;;;;5103490;28;20163;-71
2021/03/28 02:19:06;;;;;;;15.30;3.53;;;8.10;99.90;;;;;;5105875;28;20171;-71
2021/03/28 02:21:50;;;;;;;8.67;2.97;;;8.10;99.90;;;;;;5106287;28;20195;-71
2021/03/28 02:24:31;;;;;;;12.73;3.80;;;8.10;99.90;;;;;;5106258;28;20178;-71
2021/03/28 02:27:15;;;;;;;8.23;2.97;;;8.40;99.90;;;;;;5103243;28;20167;-71
2021/03/28 02:30:05;;;;;;;10.27;3.80;;;8.50;99.90;;;;;;5106034;28;20219;-71
2021/03/28 02:32:47;;;;;;;17.10;3.43;;;8.50;99.90;;;;;;5105851;28;20171;-70
2021/03/28 02:35:31;;;;;;;9.93;3.23;;;8.60;99.90;;;;;;5085389;28;20411;-70
2021/03/28 02:38:14;;;;;;;11.67;3.77;;;8.60;99.90;;;;;;5105891;28;20163;-71
2021/03/28 02:41:00;;;;;;;10.67;3.93;;;8.50;99.90;;;;;;5105733;28;20166;-71
2021/03/28 02:43:36;;;;;;;12.77;3.90;;;8.60;99.90;;;;;;5087669;28;20179;-70
2021/03/28 02:46:23;;;;;;;11.47;3.87;;;8.60;99.90;;;;;;5103188;28;20361;-71
2021/03/28 02:49:12;;;;;;;9.43;4.00;;;8.60;99.90;;;;;;5105566;28;20179;-71
2021/03/28 02:52:13;;;;;;;13.67;3.70;;;8.70;99.90;;;;;;5105877;28;20171;-70
2021/03/28 02:54:54;;;;;;;20.03;3.40;;;8.60;99.90;;;;;;5105186;28;20191;-71
2021/03/28 02:57:39;;;;;;;11.17;3.50;;;8.70;99.90;;;;;;5085516;28;20163;-72
2021/03/28 03:00:24;;;;;;;9.40;3.00;;;8.80;99.90;;;;;;5105806;28;20167;-71
2021/03/28 03:03:04;;;;;;;12.03;2.80;;;8.70;99.90;;;;;;5105400;28;20235;-71
2021/03/28 03:05:52;;;;;;;13.53;3.43;;;8.60;99.90;;;;;;5103183;28;20491;-71
2021/03/28 03:08:44;;;;;;;8.60;3.10;;;8.80;99.90;;;;;;5105899;28;20160;-71
2021/03/28 03:11:54;;;;;;;9.10;3.73;;;8.90;99.90;;;;;;5105492;28;20388;-71
2021/03/28 03:14:46;;;;;;;9.43;3.30;;;9.00;99.90;;;;;;5105486;28;20173;-71
2021/03/28 03:17:49;;;;;;;13.10;2.77;;;9.00;99.90;;;;;;5102538;28;20167;-71
2021/03/28 03:20:53;;;;;;;8.73;2.80;;;9.00;99.90;;;;;;5105928;28;20185;-71
2021/03/28 03:23:56;;;;;;;8.10;3.10;;;8.90;99.90;;;;;;5105491;28;20226;-71
2021/03/28 03:26:40;;;;;;;9.80;3.30;;;8.70;99.90;;;;;;5084591;28;20177;-71
2021/03/28 03:29:21;;;;;;;17.33;3.33;;;8.60;99.90;;;;;;5086960;28;20246;-71
2021/03/28 03:31:58;;;;;;;12.47;3.13;;;8.70;99.90;;;;;;5087096;28;20534;-70
2021/03/28 03:34:51;;;;;;;10.40;3.70;;;8.80;99.90;;;;;;5104967;28;20436;-72
2021/03/28 03:37:42;;;;;;;14.47;3.87;;;8.90;99.90;;;;;;5084942;28;20171;-71
2021/03/28 03:40:30;;;;;;;12.73;3.20;;;9.00;99.90;;;;;;5105372;28;20209;-71
2021/03/28 03:43:23;;;;;;;6.60;2.80;;;9.10;99.90;;;;;;5105282;28;20212;-72
2021/03/28 03:46:03;;;;;;;7.03;3.00;;;9.10;99.90;;;;;;5084500;28;20207;-71
2021/03/28 03:48:41;;;;;;;8.57;2.50;;;9.00;99.90;;;;;;5086879;28;20179;-71
2021/03/28 03:51:26;;;;;;;9.07;3.97;;;9.10;99.90;;;;;;5105322;28;20171;-72
2021/03/28 03:53:57;;;;;;;11.50;3.40;;;9.20;99.90;;;;;;5088871;28;20174;-73
2021/03/28 03:56:37;;;;;;;11.83;2.70;;;9.00;99.90;;;;;;5106165;28;20246;-71
2021/03/28 03:59:15;;;;;;;6.67;2.60;;;8.90;99.90;;;;;;5108656;28;20171;-72
2021/03/28 04:01:58;;;;;;;9.40;3.40;;;8.90;99.90;;;;;;5090171;28;20202;-72
2021/03/28 04:04:29;;;;;;;7.93;2.97;;;9.10;99.90;;;;;;5090251;28;20175;-71
2021/03/28 04:07:26;;;;;;;7.93;3.20;;;9.20;99.90;;;;;;5087671;28;20615;-71
2021/03/28 04:09:54;;;;;;;8.17;3.53;;;9.30;99.90;;;;;;5090272;28;20230;-71
2021/03/28 04:12:40;;;;;;;12.80;3.47;;;9.20;99.90;;;;;;5108465;28;20242;-71
2021/03/28 04:15:22;;;;;;;15.17;3.27;;;9.20;99.90;;;;;;5106582;28;20175;-70
2021/03/28 04:18:19;;;;;;;8.10;2.93;;;9.20;99.90;;;;;;5107949;28;20171;-71
2021/03/28 04:21:10;;;;;;;8.30;3.20;;;9.20;99.90;;;;;;5006313;28;20195;-71
2021/03/28 04:23:50;;;;;;;11.20;3.70;;;9.20;99.90;;;;;;5006098;28;20179;-70
2021/03/28 04:26:29;;;;;;;7.77;2.83;;;9.20;99.90;;;;;;5003707;28;20263;-71
2021/03/28 04:29:03;;;;;;;9.33;3.77;;;9.20;99.90;;;;;;5005778;28;20313;-71
2021/03/28 04:32:13;;;;;;;11.40;3.50;;;9.10;99.90;;;;;;5006069;28;20185;-71
2021/03/28 04:35:28;;;;;;;9.00;3.10;;;9.10;99.90;;;;;;4966995;29;20202;-71
2021/03/28 04:38:15;;;;;;;6.80;3.47;;;9.10;99.90;;;;;;4954254;29;20187;-71
2021/03/28 04:40:59;;;;;;;11.50;3.57;;;9.20;99.90;;;;;;4967091;29;20186;-70
2021/03/28 04:43:57;;;;;;;14.53;4.03;;;9.10;99.90;;;;;;4967101;29;20227;-71
2021/03/28 04:46:50;;;;;;;14.27;3.80;;;9.20;99.90;;;;;;4960035;29;20169;-71
2021/03/28 04:49:49;;;;;;;9.50;3.47;;;9.20;99.90;;;;;;4966611;29;20195;-72
2021/03/28 04:52:50;;;;;;;8.30;3.13;;;9.10;99.90;;;;;;4966895;29;20262;-71
2021/03/28 04:55:51;;;;;;;8.20;3.27;;;9.10;99.90;;;;;;4907087;29;20185;-70
2021/03/28 04:58:50;;;;;;;16.35;4.15;;;9.00;99.90;;;;;;4963983;29;20428;-71
2021/03/28 05:01:31;;;;;;;7.83;3.47;;;9.00;99.90;;;;;;4966812;29;20176;-71
2021/03/28 05:04:22;;;;;;;9.40;2.80;;;9.10;99.90;;;;;;4966253;28;20207;-71
2021/03/28 05:07:14;;;;;;;8.93;3.70;;;9.10;99.90;;;;;;4963850;29;20172;-70
2021/03/28 05:10:11;;;;;;;11.20;4.00;;;9.20;99.90;;;;;;4975927;28;20214;-71
2021/03/28 05:13:00;;;;;;;18.57;4.30;;;9.10;99.90;;;;;;5005661;28;20163;-71
2021/03/28 05:15:48;;;;;;;14.17;4.53;;;9.10;99.90;;;;;;4985970;28;20483;-71
2021/03/28 05:18:52;;;;;;;11.83;3.87;;;9.20;99.90;;;;;;5004775;28;20178;-71
2021/03/28 05:21:44;;;;;;;13.87;4.20;;;9.30;99.90;;;;;;5005531;28;20176;-71
2021/03/28 05:24:52;;;;;;;10.73;3.50;;;9.30;99.90;;;;;;5005050;28;20189;-71
2021/03/28 05:27:55;;;;;;;14.63;3.93;;;9.20;99.90;;;;;;5002701;28;20286;-71
2021/03/28 05:30:33;;;;;;;12.17;3.97;;;9.30;99.90;;;;;;5101123;28;20214;-71
2021/03/28 05:33:18;;;;;;;10.73;3.70;;;9.20;99.90;;;;;;5106607;28;20220;-71
2021/03/28 05:36:21;;;;;;;11.10;4.17;;;9.40;99.90;;;;;;5086574;28;20204;-71
2021/03/28 05:39:21;;;;;;;8.87;3.97;;;9.20;99.90;;;;;;5106938;28;20289;-71
2021/03/28 05:42:22;;;;;;;11.53;3.43;;;9.20;99.90;;;;;;5107078;28;20210;-71
2021/03/28 05:45:35;;;;;;;17.60;3.77;;;9.20;99.90;;;;;;5106790;28;20175;-71
2021/03/28 05:48:22;;;;;;;19.20;3.60;;;9.10;99.90;;;;;;5088147;28;20659;-71
2021/03/28 05:51:21;;;;;;;8.37;3.67;;;8.90;99.90;;;;;;5106676;28;20206;-71
2021/03/28 05:54:24;;;;;;;8.07;3.60;;;9.00;99.90;;;;;;5106402;28;20151;-69
2021/03/28 05:57:14;;;;;;;18.00;4.30;;;9.10;99.90;;;;;;5104031;28;20163;-71
2021/03/28 05:59:58;;;;;;;12.90;4.10;;;9.20;99.90;;;;;;5106490;28;20170;-70
2021/03/28 06:02:29;;;;;;;14.90;4.37;;;9.10;99.90;;;;;;5106328;28;20186;-70
2021/03/28 06:05:07;;;;;;;13.57;4.20;;;9.20;99.90;;;;;;5105649;28;20163;-70
2021/03/28 06:07:57;;;;;;;16.13;4.60;;;9.20;99.90;;;;;;5105482;28;20186;-70
2021/03/28 06:10:53;;;;;;;10.63;3.70;;;9.20;99.90;;;;;;5106017;28;20203;-69
2021/03/28 06:13:40;;;;;;;9.43;4.10;;;9.10;99.90;;;;;;5106175;28;20173;-70
2021/03/28 06:16:20;;;;;;;13.57;4.57;;;9.10;99.90;;;;;;5102668;28;20251;-70
2021/03/28 06:19:11;;;;;;;17.40;4.33;;;9.20;99.90;;;;;;5105919;28;20163;-71
2021/03/28 06:21:46;;;;;;;15.00;3.97;;;9.20;99.90;;;;;;5106264;28;20609;-71
2021/03/28 06:24:49;;;;;;;21.77;4.67;;;9.30;99.90;;;;;;5105868;28;20175;-70
2021/03/28 06:27:31;;;;;;;13.07;4.93;;;9.40;99.90;;;;;;5102033;28;20510;-71
2021/03/28 06:30:29;;;;;;;13.03;4.53;;;9.50;99.90;;;;;;5105733;28;20258;-71
2021/03/28 06:33:14;;;;;;;19.97;4.57;;;9.50;99.90;;;;;;5105576;28;20195;-70
2021/03/28 06:36:10;;;;;;;18.13;4.70;;;9.20;99.90;;;;;;5102148;28;20397;-71
2021/03/28 06:39:19;;;;;;;13.27;4.00;;;9.40;99.90;;;;;;5087839;28;20160;-70
2021/03/28 06:42:06;;;;;;;12.03;4.67;;;9.30;99.90;;;;;;5091512;28;20186;-71
2021/03/28 06:44:51;;;;;;;14.48;5.10;;;9.50;99.90;;;;;;5105095;28;20408;-71
2021/03/28 06:47:38;;;;;;;14.40;4.87;;;9.50;99.90;;;;;;5103016;28;20704;-70
2021/03/28 06:50:15;;;;;;;21.30;4.93;;;9.30;99.90;;;;;;5105733;28;20202;-71
2021/03/28 06:53:16;;;;;;;12.33;4.07;;;9.40;99.90;;;;;;5105835;28;20470;-70
2021/03/28 06:55:43;;;;;;;14.73;4.43;;;9.60;99.90;;;;;;5102889;28;20224;-70
2021/03/28 06:58:21;;;;;;;14.33;4.17;;;9.60;99.90;;;;;;5087291;28;20170;-71
2021/03/28 07:01:31;;;;;;;15.77;4.33;;;9.50;99.90;;;;;;5105877;28;20223;-71
2021/03/28 07:03:56;;;;;;;12.77;4.17;;;9.50;99.90;;;;;;5003139;28;20198;-71
2021/03/28 07:06:42;;;;;;;14.80;4.57;;;9.50;99.90;;;;;;5000526;28;20210;-71
2021/03/28 07:09:32;;;;;;;17.00;4.27;;;9.40;99.90;;;;;;5003691;28;20348;-70
2021/03/28 07:12:22;;;;;;;11.17;4.57;;;9.50;99.90;;;;;;5003315;28;20178;-71
2021/03/28 07:15:17;;;;;;;16.30;5.40;;;9.40;99.90;;;;;;5003649;28;20775;-70
2021/03/28 07:18:04;;;;;;;15.47;4.50;;;9.30;99.90;;;;;;5003022;28;20183;-71
2021/03/28 07:20:49;;;;;;;12.93;4.10;;;9.40;99.90;;;;;;5003912;28;20271;-71
2021/03/28 07:23:44;;;;;;;14.00;4.63;;;9.30;99.90;;;;;;5003319;28;20167;-70
2021/03/28 07:26:37;;;;;;;11.60;4.23;;;9.30;99.90;;;;;;5000497;28;20206;-71
2021/03/28 07:29:24;;;;;;;12.40;4.20;;;9.20;99.90;;;;;;5005703;28;20214;-71
2021/03/28 07:32:20;;;;;;;16.33;3.93;;;9.20;99.90;;;;;;5007137;28;20190;-71
2021/03/28 07:35:18;;;;;;;17.77;4.63;;;9.50;99.90;;;;;;5006847;28;20178;-71
2021/03/28 07:38:21;;;;;;;6.00;3.70;;;9.50;99.90;;;;;;5051051;28;20171;-71
2021/03/28 07:41:15;;;;;;;9.87;4.23;;;9.60;99.90;;;;;;5090711;28;20175;-70
2021/03/28 07:44:08;;;;;;;11.50;4.60;;;9.60;99.90;;;;;;5109063;28;20217;-71
2021/03/28 07:47:12;;;;;;;12.40;4.33;;;9.50;99.90;;;;;;5106218;28;20223;-71
2021/03/28 07:50:15;;;;;;;11.17;4.73;;;9.60;99.90;;;;;;5108644;28;20201;-71
2021/03/28 07:53:25;;;;;;;20.73;4.63;;;9.70;99.90;;;;;;5108839;28;20163;-71
2021/03/28 07:55:58;;;;;;;14.87;3.50;;;9.90;99.90;;;;;;5105894;28;20172;-70
2021/03/28 07:58:35;;;;;;;11.00;3.87;;;9.80;99.90;;;;;;5090599;28;20170;-71
2021/03/28 08:01:21;;;;;;;10.77;3.33;;;9.90;99.90;;;;;;5108613;28;20254;-71
2021/03/28 08:03:54;;;;;;;9.53;3.33;;;10.00;99.90;;;;;;5108356;28;20178;-71
2021/03/28 08:06:39;;;;;;;21.23;4.13;;;10.10;99.90;;;;;;5105927;28;20171;-71
2021/03/28 08:09:40;;;;;;;11.40;3.50;;;10.20;99.90;;;;;;5090174;28;20187;-71
2021/03/28 08:12:27;;;;;;;11.40;3.77;;;10.20;99.90;;;;;;5108018;28;20155;-70
2021/03/28 08:15:24;;;;;;;8.70;3.87;;;10.30;99.90;;;;;;5089603;28;20603;-70
2021/03/28 08:18:18;;;;;;;9.07;3.17;;;10.30;99.90;;;;;;5108022;28;20383;-70
2021/03/28 08:21:31;;;;;;;10.87;3.67;;;10.50;99.90;;;;;;5108349;28;20170;-71
2021/03/28 08:24:18;;;;;;;10.40;3.20;;;10.50;99.90;;;;;;5063058;28;20178;-71
2021/03/28 08:27:17;;;;;;;9.37;3.40;;;10.60;99.90;;;;;;5105387;28;20167;-71
2021/03/28 08:30:28;;;;;;;11.93;2.80;;;10.60;99.90;;;;;;5108005;28;20283;-71
2021/03/28 08:33:23;;;;;;;12.43;2.90;;;10.60;99.90;;;;;;5102697;28;20187;-71
2021/03/28 08:36:11;;;;;;;11.93;3.20;;;10.80;99.90;;;;;;5105300;28;20167;-70
2021/03/28 08:39:12;;;;;;;15.27;2.87;;;10.80;99.90;;;;;;5107334;28;20164;-71
2021/03/28 08:42:02;;;;;;;11.03;2.83;;;10.80;99.90;;;;;;5067235;28;20182;-71
2021/03/28 08:45:18;;;;;;;9.13;2.80;;;10.90;99.90;;;;;;5107822;28;20171;-70
2021/03/28 08:48:08;;;;;;;12.90;3.13;;;10.90;99.90;;;;;;5004936;28;20282;-71
2021/03/28 08:50:58;;;;;;;8.17;2.67;;;11.00;99.90;;;;;;5005263;28;20210;-70
2021/03/28 08:53:31;;;;;;;9.63;2.60;;;11.00;99.90;;;;;;5005323;28;20171;-70
2021/03/28 08:56:18;;;;;;;8.70;2.83;;;11.10;99.90;;;;;;5002485;28;20190;-70
2021/03/28 08:59:06;;;;;;;11.82;2.75;;;11.20;99.90;;;;;;5004617;28;20504;-70
2021/03/28 09:02:29;;;;;;;9.50;2.77;;;11.20;99.90;;;;;;5005223;28;20683;-70
2021/03/28 09:05:10;;;;;;;15.53;3.27;;;11.30;99.90;;;;;;4965225;29;20211;-71
2021/03/28 09:07:48;;;;;;;13.00;2.60;;;11.30;99.90;;;;;;4965183;29;20176;-70
2021/03/28 09:10:33;;;;;;;13.50;2.40;;;11.30;99.90;;;;;;4965523;29;20597;-71
2021/03/28 09:13:18;;;;;;;9.93;2.97;;;11.30;99.90;;;;;;4965807;29;20183;-70
2021/03/28 09:16:02;;;;;;;12.03;2.33;;;11.30;99.90;;;;;;4963084;29;20195;-71
2021/03/28 09:18:53;;;;;;;19.73;2.53;;;11.40;99.90;;;;;;4965309;29;20177;-71
2021/03/28 09:21:55;;;;;;;13.20;2.87;;;11.60;99.90;;;;;;4965846;29;20192;-71
2021/03/28 09:24:43;;;;;;;11.70;3.10;;;11.70;99.90;;;;;;5064127;28;20179;-71
2021/03/28 09:27:55;;;;;;;10.07;2.30;;;11.80;99.90;;;;;;5061175;28;20177;-71
2021/03/28 09:30:29;;;;;;;8.57;2.63;;;11.80;99.90;;;;;;5004781;28;20214;-71
2021/03/28 09:33:28;;;;;;;9.77;2.57;;;11.90;99.90;;;;;;5004198;28;20253;-72
2021/03/28 09:36:21;;;;;;;10.53;2.93;;;12.20;99.90;;;;;;5001870;28;20186;-71
2021/03/28 09:39:17;;;;;;;13.93;3.30;;;12.10;99.90;;;;;;5028006;28;20188;-71
2021/03/28 09:42:19;;;;;;;10.20;2.97;;;12.00;99.90;;;;;;5043949;28;20204;-71
2021/03/28 09:44:54;;;;;;;9.47;2.90;;;12.00;99.90;;;;;;5044060;28;20200;-71
2021/03/28 09:47:43;;;;;;;21.27;4.07;;;12.00;99.90;;;;;;5041330;28;20243;-71
2021/03/28 09:50:40;;;;;;;7.90;2.30;;;12.10;99.90;;;;;;5042910;28;20297;-71
2021/03/28 09:53:41;;;;;;;12.30;2.40;;;12.20;99.90;;;;;;5026238;28;20702;-71
2021/03/28 09:56:25;;;;;;;13.90;2.77;;;12.20;99.90;;;;;;5040401;28;20198;-71
2021/03/28 09:59:24;;;;;;;12.10;2.43;;;12.20;99.90;;;;;;5043207;28;20244;-72
2021/03/28 10:02:27;;;;;;;9.13;2.33;;;12.20;99.90;;;;;;5026744;28;20193;-71
2021/03/28 10:04:58;;;;;;;10.27;2.70;;;12.30;99.90;;;;;;5060537;28;20191;-71
2021/03/28 10:07:43;;;;;;;12.13;2.33;;;12.30;99.90;;;;;;5063794;28;20165;-71
2021/03/28 10:10:30;;;;;;;10.83;2.60;;;12.40;99.90;;;;;;5065384;28;20654;-71
2021/03/28 10:13:20;;;;;;;11.30;2.60;;;12.30;99.90;;;;;;5065370;28;20187;-71
2021/03/28 10:16:13;;;;;;;19.95;2.65;;;12.40;99.90;;;;;;5062968;28;20697;-71
2021/03/28 10:18:39;;;;;;;13.38;2.30;;;12.80;99.90;;;;;;5064303;28;20179;-72
2021/03/28 10:21:24;;;;;;;7.00;2.03;;;13.00;99.90;;;;;;5064274;28;20240;-71
2021/03/28 10:24:05;;;;;;;6.78;1.80;;;13.00;99.90;;;;;;5065680;28;20180;-70
2021/03/28 10:26:54;;;;;;;10.30;2.33;;;13.10;99.90;;;;;;5062974;28;20247;-71
2021/03/28 10:29:51;;;;;;;8.50;2.00;;;13.20;99.90;;;;;;5092203;28;20215;-71
2021/03/28 10:32:36;;;;;;;7.88;2.08;;;13.40;99.90;;;;;;5105639;28;20249;-71
2021/03/28 10:35:26;;;;;;;11.15;2.70;;;13.20;99.90;;;;;;5104441;28;20171;-71
2021/03/28 10:38:33;;;;;;;9.02;1.88;;;13.20;99.90;;;;;;5105649;28;20226;-71
2021/03/28 10:41:07;;;;;;;6.47;2.08;;;13.00;99.90;;;;;;5003574;28;20260;-71
2021/03/28 10:43:56;;;;;;;10.70;2.38;;;13.20;99.90;;;;;;5003884;28;20185;-71
2021/03/28 10:46:59;;;;;;;8.88;2.72;;;13.30;99.90;;;;;;5000736;28;20202;-71
2021/03/28 10:49:33;;;;;;;9.00;2.10;;;13.30;99.90;;;;;;5003332;28;20213;-71
2021/03/28 10:52:30;;;;;;;8.02;2.47;;;13.10;99.90;;;;;;5003525;28;20178;-72
2021/03/28 10:55:17;;;;;;;9.02;2.33;;;13.10;99.90;;;;;;5002839;28;20182;-71
2021/03/28 10:58:16;;;;;;;11.75;2.75;;;13.10;99.90;;;;;;5003462;28;20178;-72
2021/03/28 11:01:12;;;;;;;18.08;2.25;;;13.10;99.90;;;;;;5003684;28;20170;-71
2021/03/28 11:04:08;;;;;;;14.52;2.33;;;13.20;99.90;;;;;;5007196;28;20684;-71
2021/03/28 11:06:44;;;;;;;9.05;2.30;;;13.30;99.90;;;;;;5005040;28;20202;-71
2021/03/28 11:09:48;;;;;;;8.27;1.95;;;13.50;99.90;;;;;;5007258;28;20431;-71
2021/03/28 11:12:35;;;;;;;15.52;2.53;;;13.50;99.90;;;;;;5007410;28;20180;-71
2021/03/28 11:15:34;;;;;;;8.10;2.53;;;13.40;99.90;;;;;;5006297;28;20171;-70
2021/03/28 11:18:21;;;;;;;10.02;2.15;;;13.30;99.90;;;;;;5108631;28;20543;-68
2021/03/28 11:20:55;;;;;;;8.35;2.60;;;13.50;99.90;;;;;;5109437;28;20171;-68
2021/03/28 11:23:40;;;;;;;11.27;2.10;;;13.60;99.90;;;;;;5108905;28;20166;-68
2021/03/28 11:26:33;;;;;;;14.07;2.80;;;13.40;99.90;;;;;;5105688;28;20408;-68
2021/03/28 11:29:23;;;;;;;12.98;2.33;;;13.50;99.90;;;;;;5108640;28;20298;-68
2021/03/28 11:31:57;;;;;;;11.00;2.15;;;13.50;99.90;;;;;;5109236;28;20600;-68
2021/03/28 11:35:02;;;;;;;15.48;2.78;;;13.60;99.90;;;;;;5090595;28;20192;-68
2021/03/28 11:37:36;;;;;;;6.68;2.50;;;13.70;99.90;;;;;;5066043;28;20163;-69
2021/03/28 11:40:18;;;;;;;13.35;3.05;;;13.70;99.90;;;;;;5108689;28;20628;-68
2021/03/28 11:43:08;;;;;;;10.07;2.50;;;13.70;99.90;;;;;;5108766;28;20164;-69
2021/03/28 11:45:41;;;;;;;12.90;2.30;;;13.60;99.90;;;;;;5106207;28;20171;-66
2021/03/28 11:48:40;;;;;;;10.02;2.17;;;13.80;99.90;;;;;;5108371;28;20198;-67
2021/03/28 11:51:42;;;;;;;9.13;2.25;;;13.80;99.90;;;;;;5108767;28;20195;-67
2021/03/28 11:54:13;;;;;;;9.18;1.90;;;13.80;99.90;;;;;;5108548;28;20163;-69
2021/03/28 11:57:17;;;;;;;11.13;2.33;;;13.90;99.90;;;;;;5106044;28;20652;-68
2021/03/28 11:59:48;;;;;;;13.55;2.63;;;14.10;99.90;;;;;;5108030;28;20190;-68
2021/03/28 12:02:13;;;;;;;11.70;2.33;;;14.00;99.90;;;;;;5108444;28;20185;-68
2021/03/28 12:04:41;;;;;;;7.55;2.03;;;13.90;99.90;;;;;;5090100;28;20246;-68
2021/03/28 12:07:25;;;;;;;11.38;2.65;;;14.10;99.90;;;;;;5105746;28;20175;-68
2021/03/28 12:10:00;;;;;;;9.68;3.03;;;13.90;99.90;;;;;;5108266;28;20190;-68
2021/03/28 12:12:32;;;;;;;13.10;3.47;;;13.90;99.90;;;;;;5090280;28;20212;-68
2021/03/28 12:15:35;;;;;;;9.93;2.70;;;13.60;99.90;;;;;;5106623;28;20172;-68
2021/03/28 12:18:23;;;;;;;22.02;3.17;;;13.90;99.90;;;;;;5107554;28;20175;-68
2021/03/28 12:21:04;;;;;;;7.05;2.40;;;13.80;99.90;;;;;;5107855;28;20659;-68
2021/03/28 12:23:36;;;;;;;8.68;2.22;;;13.80;99.90;;;;;;5089354;28;20181;-68
2021/03/28 12:26:07;;;;;;;11.80;2.70;;;13.90;99.90;;;;;;5104483;28;20175;-68
2021/03/28 12:28:51;;;;;;;13.13;2.58;;;14.00;99.90;;;;;;5107831;28;20331;-68
2021/03/28 12:31:38;;;;;;;10.68;2.72;;;14.20;99.90;;;;;;5089606;28;20702;-68
2021/03/28 12:34:25;;;;;;;14.10;3.17;;;14.20;99.90;;;;;;5107488;28;20545;-69
2021/03/28 12:36:57;;;;;;;12.10;2.30;;;14.20;99.90;;;;;;5104963;28;20238;-68
2021/03/28 12:39:28;;;;;;;15.82;2.53;;;14.20;99.90;;;;;;5107693;28;20168;-69
2021/03/28 12:42:03;;;;;;;12.68;2.70;;;13.90;99.90;;;;;;5107692;28;20156;-68
2021/03/28 12:44:32;;;;;;;13.07;2.72;;;13.80;99.90;;;;;;5106977;28;20167;-69
2021/03/28 12:47:00;;;;;;;10.63;2.53;;;14.10;99.90;;;;;;5104804;28;20163;-68
2021/03/28 12:49:42;;;;;;;6.82;2.65;;;14.00;99.90;;;;;;5089371;28;20193;-69
2021/03/28 12:52:10;;;;;;;15.43;3.35;;;14.00;99.90;;;;;;5107702;28;20159;-68
2021/03/28 12:54:56;;;;;;;10.23;2.38;;;14.10;99.90;;;;;;5107517;28;20189;-69
2021/03/28 12:57:36;;;;;;;7.60;2.28;;;14.10;99.90;;;;;;5105664;28;20193;-69
2021/03/28 13:00:27;;;;;;;15.30;2.72;;;14.00;99.90;;;;;;5107003;28;20165;-69
2021/03/28 13:02:56;;;;;;;13.52;2.47;;;14.10;99.90;;;;;;5106885;28;20178;-69
2021/03/28 13:05:35;;;;;;;8.00;2.15;;;14.20;99.90;;;;;;5104387;28;20470;-69
2021/03/28 13:08:10;;;;;;;11.98;2.42;;;14.20;99.90;;;;;;5107104;28;20174;-69
2021/03/28 13:10:41;;;;;;;23.92;3.25;;;14.40;99.90;;;;;;5089344;28;20202;-69
2021/03/28 13:13:24;;;;;;;11.90;2.75;;;14.50;99.90;;;;;;5107295;28;20169;-69
2021/03/28 13:15:58;;;;;;;12.00;2.47;;;14.50;99.90;;;;;;5104538;28;20623;-69
2021/03/28 13:18:46;;;;;;;9.18;2.58;;;14.50;99.90;;;;;;5106905;28;20185;-69
2021/03/28 13:21:32;;;;;;;8.20;2.72;;;14.80;99.90;;;;;;5107039;28;20176;-69
2021/03/28 13:24:06;;;;;;;9.98;2.58;;;14.90;99.90;;;;;;5106412;28;20636;-68
2021/03/28 13:26:32;;;;;;;15.05;2.20;;;15.00;99.90;;;;;;5104115;28;20167;-69
2021/03/28 13:29:13;;;;;;;10.15;2.17;;;14.90;99.90;;;;;;5087572;28;20211;-69
2021/03/28 13:31:58;;;;;;;15.32;2.05;;;14.70;99.90;;;;;;5088717;28;20167;-69
2021/03/28 13:34:56;;;;;;;8.10;2.28;;;14.90;99.90;;;;;;5088648;28;20191;-69
2021/03/28 13:37:27;;;;;;;7.90;2.03;;;15.00;99.90;;;;;;5105075;28;20155;-69
2021/03/28 13:40:20;;;;;;;10.13;1.92;;;15.10;99.90;;;;;;5106845;28;20163;-69
2021/03/28 13:42:54;;;;;;;10.30;2.25;;;15.10;99.90;;;;;;5106954;28;20156;-69
2021/03/28 13:45:26;;;;;;;7.93;2.75;;;15.10;99.90;;;;;;5104214;28;20310;-69
2021/03/28 13:47:53;;;;;;;9.00;2.65;;;15.20;99.90;;;;;;5106555;28;20244;-69
2021/03/28 13:50:27;;;;;;;7.18;3.03;;;15.30;99.90;;;;;;5106967;28;20202;-69
2021/03/28 13:52:58;;;;;;;10.18;2.20;;;15.20;99.90;;;;;;5106635;28;20165;-69
2021/03/28 13:55:27;;;;;;;11.23;2.53;;;15.20;99.90;;;;;;5085712;28;20160;-69
2021/03/28 13:57:52;;;;;;;7.25;2.45;;;15.40;99.90;;;;;;5106464;28;20170;-68
2021/03/28 14:00:35;;;;;;;8.20;1.92;;;15.20;99.90;;;;;;5106711;28;20209;-69
2021/03/28 14:03:25;;;;;;;11.23;2.40;;;15.00;99.90;;;;;;5088094;28;20190;-69
2021/03/28 14:05:54;;;;;;;7.07;1.95;;;15.00;99.90;;;;;;5087968;28;20201;-69
2021/03/28 14:08:25;;;;;;;5.10;2.10;;;15.20;99.90;;;;;;5106440;28;20191;-68
2021/03/28 14:10:56;;;;;;;8.57;2.10;;;15.30;99.90;;;;;;5106394;28;20198;-69
2021/03/28 14:13:34;;;;;;;5.35;1.98;;;15.20;99.90;;;;;;5106302;28;20152;-69
2021/03/28 14:16:00;;;;;;;11.20;2.42;;;15.30;99.90;;;;;;5103204;28;20573;-69
2021/03/28 14:18:37;;;;;;;12.48;2.15;;;15.50;99.90;;;;;;5087063;28;20186;-69
2021/03/28 14:21:23;;;;;;;13.10;3.03;;;15.40;99.90;;;;;;5106044;28;20182;-69
2021/03/28 14:24:01;;;;;;;6.70;2.47;;;15.40;99.90;;;;;;5106098;28;20175;-68